首页
METAR-TAF:

METAR-TAF

机场 :

夏洛特道格拉斯國際機場

夏洛特, 北卡罗来纳州, 美国

纬度: 35-12-48N, 经度: 080-56-55W, 海拔: 228米

当前天气观测

该预报发布于17分钟前的10:13 UTC
风速6节,风向
温度 21°C
湿度 83%
气压 1020 hPa
能見度: 16.1公里
多云层高于1100英尺
阴天层高于6500英尺

METAR: KCLT 261013Z 08006KT 10SM BKN011 OVC065 21/18 A3013 RMK AO2 T02060178 $

时间: 06:30 (10:30 UTC)

预报

该预报发布于29分钟前的10:01 UTC
预报有效从26日的 10点(UTC)到 27日的 12点(UTC)
风速5节,风向东转东北
能見度: 10公里
少量云层高于1300英尺
阴天层高于3500英尺
从 26日的 1100点(UTC)
风速5节,风向
能見度: 10公里
多云层高于1500英尺
阴天层高于2500英尺
短暂存在
从 26日的 12点(UTC)到 26日的 15点(UTC)
多云层高于800英尺
阴天层高于1500英尺
从 26日的 1800点(UTC)
风速9节,风向东转东北
能見度: 10公里
多云层高于4500英尺
阴天层高于14000英尺
从 27日的 0300点(UTC)
风速7节,风向东转东北
能見度: 10公里
多云层高于2700英尺
阴天层高于4500英尺
附近有阵雨
从 27日的 0900点(UTC)
风速7节,风向东转东北
能見度: 10公里
阴天层高于900英尺
几率 30%
从 27日的 09点(UTC)到 27日的 12点(UTC)
能見度: 6.4公里
阴天层高于300英尺
小阵雨, 轻雾

TAF: KCLT 261001Z 2610/2712 07005KT P6SM FEW013 OVC035 FM261100 08005KT P6SM BKN015 OVC025 TEMPO 2612/2615 BKN008 OVC015 FM261800 07009KT P6SM BKN045 OVC140 FM270300 07007KT P6SM VCSH BKN027 OVC045 FM270900 06007KT P6SM OVC009 PROB30 2709/2712 4SM -SHRA BR OVC003

超过4000个机场的气象观测和天气预报(METAR&TAF报告)。

可查询的气象台以黄色和红色小点在地图上表示。

将鼠标移到小点上方,可查看气象台名称。

然后点击查看天气观测和预报。

如需切换地图:点击带黑十字的绿色按钮放大地图;点击带横线的绿色按钮缩小地图;或者点击绿色箭头查看邻近地区的地图。


METAR-TAF: